createdAt,value
2019-02-12T00:01:51.453Z,97148.53
2019-02-12T00:04:39.367Z,97148.39
2019-02-12T00:07:26.973Z,97145.81
2019-02-12T00:10:14.989Z,97154.47
2019-02-12T00:13:02.570Z,97144.09
2019-02-12T00:15:50.329Z,97148.15
2019-02-12T00:18:38.423Z,97148.69
2019-02-12T00:21:26.409Z,97151.50
2019-02-12T00:24:14.380Z,97151.15
2019-02-12T00:27:01.935Z,97156.25
2019-02-12T00:29:50.098Z,97159.47
2019-02-12T00:32:38.055Z,97160.44
2019-02-12T00:35:25.818Z,97173.75
2019-02-12T00:38:13.888Z,97182.10
2019-02-12T00:41:02.010Z,97197.19
2019-02-12T00:43:50.049Z,97196.52
2019-02-12T00:46:37.773Z,97196.91
2019-02-12T00:49:25.311Z,97200.41
2019-02-12T00:52:13.634Z,97202.83
2019-02-12T00:55:02.030Z,97210.27
2019-02-12T00:57:49.846Z,97204.66
2019-02-12T01:00:37.681Z,97212.66
2019-02-12T01:03:25.310Z,97212.56
2019-02-12T01:06:13.670Z,97218.87
2019-02-12T01:09:01.520Z,97222.88
2019-02-12T01:11:49.321Z,97217.53
2019-02-12T01:14:37.569Z,97213.36
2019-02-12T01:17:25.878Z,97209.14
2019-02-12T01:20:14.570Z,97208.64
2019-02-12T01:23:02.267Z,97214.37
2019-02-12T01:25:50.200Z,97225.98
2019-02-12T01:28:38.214Z,97218.84
2019-02-12T01:31:26.107Z,97220.13
2019-02-12T01:34:14.434Z,97226.89
2019-02-12T01:37:02.321Z,97228.41
2019-02-12T01:39:49.990Z,97230.77
2019-02-12T01:42:38.340Z,97229.11
2019-02-12T01:45:26.172Z,97228.61
2019-02-12T01:48:13.825Z,97229.98
2019-02-12T01:51:01.792Z,97230.48
2019-02-12T01:53:49.778Z,97235.88
2019-02-12T01:56:37.668Z,97236.19
2019-02-12T01:59:25.871Z,97241.36
2019-02-12T02:02:13.826Z,97249.23
2019-02-12T02:05:02.015Z,97254.59
2019-02-12T02:07:49.631Z,97258.14
2019-02-12T02:10:39.090Z,97255.01
2019-02-12T02:13:27.331Z,97257.59
2019-02-12T02:16:15.563Z,97249.08
2019-02-12T02:19:03.065Z,97248.98
2019-02-12T02:21:50.896Z,97243.73
2019-02-12T02:24:38.441Z,97240.58
2019-02-12T02:27:26.076Z,97236.57
2019-02-12T02:30:14.625Z,97236.17
2019-02-12T02:33:02.811Z,97241.52
2019-02-12T02:35:50.951Z,97243.44
2019-02-12T02:38:38.954Z,97247.07
2019-02-12T02:41:26.824Z,97244.31
2019-02-12T02:44:14.720Z,97249.76
2019-02-12T02:47:02.669Z,97247.00
2019-02-12T02:49:50.630Z,97241.14
2019-02-12T02:52:38.058Z,97246.24
2019-02-12T02:55:26.189Z,97251.66
2019-02-12T02:58:13.859Z,97253.75
2019-02-12T03:01:01.882Z,97250.16
2019-02-12T03:03:49.630Z,97244.52
2019-02-12T03:06:37.179Z,97258.81
2019-02-12T03:09:25.162Z,97259.69
2019-02-12T03:12:13.414Z,97258.78
2019-02-12T03:15:00.849Z,97246.75
2019-02-12T03:17:48.665Z,97248.48
2019-02-12T03:20:36.506Z,97245.95
2019-02-12T03:23:24.366Z,97254.22
2019-02-12T03:26:12.536Z,97251.46
2019-02-12T03:29:00.454Z,97243.98
2019-02-12T03:31:48.093Z,97254.92
2019-02-12T03:34:36.353Z,97250.72
2019-02-12T03:37:24.405Z,97253.75
2019-02-12T03:40:12.880Z,97255.34
2019-02-12T03:43:00.524Z,97258.14
2019-02-12T03:45:48.687Z,97261.11
2019-02-12T03:48:36.799Z,97259.61
2019-02-12T03:51:25.025Z,97268.53
2019-02-12T03:54:12.968Z,97258.98
2019-02-12T03:57:01.198Z,97266.63
2019-02-12T03:59:49.072Z,97262.83
2019-02-12T04:02:36.896Z,97266.95
2019-02-12T04:05:25.472Z,97272.48
2019-02-12T04:08:13.757Z,97273.17
2019-02-12T04:11:01.598Z,97284.09
2019-02-12T04:13:49.463Z,97287.22
2019-02-12T04:16:37.349Z,97293.66
2019-02-12T04:19:25.735Z,97291.20
2019-02-12T04:22:21.921Z,97288.48
2019-02-12T04:25:02.999Z,97289.56
2019-02-12T04:27:52.264Z,97292.58
2019-02-12T04:30:39.985Z,97302.12
2019-02-12T04:33:27.928Z,97307.00
2019-02-12T04:36:15.567Z,97306.38
2019-02-12T04:39:04.049Z,97307.72
2019-02-12T04:41:52.349Z,97314.35
2019-02-12T04:44:40.047Z,97322.33
2019-02-12T04:47:28.128Z,97322.73
2019-02-12T04:50:16.097Z,97320.48
2019-02-12T04:53:03.931Z,97324.75
2019-02-12T04:55:51.905Z,97332.09
2019-02-12T04:58:39.684Z,97342.33
2019-02-12T05:01:27.799Z,97339.12
2019-02-12T05:04:15.373Z,97343.77
2019-02-12T05:07:03.706Z,97330.52
2019-02-12T05:09:53.553Z,97337.60
2019-02-12T05:12:41.157Z,97336.85
2019-02-12T05:15:29.325Z,97345.69
2019-02-12T05:18:17.108Z,97348.01
2019-02-12T05:21:05.221Z,97346.88
2019-02-12T05:23:53.372Z,97345.30
2019-02-12T05:26:41.608Z,97348.30
2019-02-12T05:29:29.633Z,97346.03
2019-02-12T05:32:17.763Z,97347.08
2019-02-12T05:35:05.876Z,97342.70
2019-02-12T05:37:54.038Z,97336.14
2019-02-12T05:40:42.150Z,97338.11
2019-02-12T05:43:30.480Z,97340.24
2019-02-12T05:46:18.674Z,97339.81
2019-02-12T05:49:06.734Z,97337.38
2019-02-12T05:51:54.934Z,97328.78
2019-02-12T05:54:43.190Z,97330.66
2019-02-12T05:57:31.226Z,97333.09
2019-02-12T06:00:19.832Z,97325.36
2019-02-12T06:03:07.871Z,97334.09
2019-02-12T06:05:56.134Z,97329.81
2019-02-12T06:08:43.965Z,97333.36
2019-02-12T06:11:31.950Z,97343.83
2019-02-12T06:14:19.586Z,97343.14
2019-02-12T06:17:07.578Z,97351.38
2019-02-12T06:19:55.706Z,97350.28
2019-02-12T06:22:43.860Z,97339.59
2019-02-12T06:25:32.367Z,97345.36
2019-02-12T06:28:20.425Z,97341.28
2019-02-12T06:31:08.369Z,97345.93
2019-02-12T06:33:56.540Z,97347.45
2019-02-12T06:36:44.662Z,97347.22
2019-02-12T06:39:33.113Z,97346.50
2019-02-12T06:42:21.353Z,97358.60
2019-02-12T06:45:09.881Z,97359.21
2019-02-12T06:47:57.696Z,97362.77
2019-02-12T06:50:45.641Z,97374.97
2019-02-12T06:53:33.930Z,97378.70
2019-02-12T06:56:21.854Z,97378.57
2019-02-12T06:59:09.632Z,97373.80
2019-02-12T07:02:33.508Z,97372.59
2019-02-12T07:05:21.423Z,97366.84
2019-02-12T07:08:37.338Z,97372.48
2019-02-12T07:12:08.201Z,97380.55
2019-02-12T07:15:25.983Z,97390.38
2019-02-12T07:18:49.823Z,97390.25
2019-02-12T07:21:47.246Z,97385.10
2019-02-12T07:24:52.014Z,97379.98
2019-02-12T07:28:13.800Z,97377.98
2019-02-12T07:31:34.581Z,97378.28
2019-02-12T07:34:49.277Z,97366.48
2019-02-12T07:38:12.001Z,97372.45
2019-02-12T07:41:38.169Z,97373.67
2019-02-12T07:45:13.553Z,97365.73
2019-02-12T07:48:48.637Z,97368.25
2019-02-12T07:52:32.347Z,97368.70
2019-02-12T07:55:54.314Z,97367.84
2019-02-12T07:59:10.210Z,97379.66
2019-02-12T08:02:21.995Z,97377.14
2019-02-12T08:05:56.046Z,97385.90
2019-02-12T08:09:21.304Z,97386.88
2019-02-12T08:12:32.868Z,97389.30
2019-02-12T08:15:45.955Z,97399.37
2019-02-12T08:19:04.870Z,97399.95
2019-02-12T08:22:15.062Z,97398.41
2019-02-12T08:25:29.259Z,97403.05
2019-02-12T08:29:09.014Z,97408.05
2019-02-12T08:32:41.470Z,97416.30
2019-02-12T08:36:09.560Z,97418.98
2019-02-12T08:39:32.268Z,97426.93
2019-02-12T08:42:51.350Z,97431.16
2019-02-12T08:46:16.502Z,97435.91
2019-02-12T08:49:50.189Z,97440.94
2019-02-12T08:53:16.239Z,97450.85
2019-02-12T08:56:32.863Z,97451.78
2019-02-12T09:00:15.306Z,97454.36
2019-02-12T09:03:41.534Z,97460.27
2019-02-12T09:07:09.995Z,97465.07
2019-02-12T09:10:47.006Z,97467.55
2019-02-12T09:14:14.637Z,97473.62
2019-02-12T09:17:51.006Z,97470.02
2019-02-12T09:21:06.725Z,97472.12
2019-02-12T09:24:36.861Z,97472.94
2019-02-12T09:28:26.605Z,97473.44
2019-02-12T09:31:49.563Z,97481.73
2019-02-12T09:35:05.350Z,97491.34
2019-02-12T09:38:58.878Z,97490.21
2019-02-12T09:42:09.015Z,97484.23
2019-02-12T09:45:46.316Z,97483.44
2019-02-12T09:48:47.137Z,97482.73
2019-02-12T09:52:03.509Z,97486.86
2019-02-12T09:55:27.523Z,97490.18
2019-02-12T09:59:01.529Z,97496.30
2019-02-12T10:02:27.710Z,97497.92
2019-02-12T10:06:02.613Z,97499.55
2019-02-12T10:09:17.188Z,97496.73
2019-02-12T10:12:33.874Z,97502.60
2019-02-12T10:15:51.004Z,97501.37
2019-02-12T10:19:41.144Z,97503.83
2019-02-12T10:23:16.251Z,97497.62
2019-02-12T10:26:08.446Z,97504.43
2019-02-12T10:29:27.465Z,97507.43
2019-02-12T10:32:13.813Z,97514.72
2019-02-12T10:35:01.511Z,97516.72
2019-02-12T10:37:49.902Z,97521.66
2019-02-12T10:40:37.679Z,97509.43
2019-02-12T10:43:25.447Z,97512.17
2019-02-12T10:46:13.024Z,97517.14
2019-02-12T10:49:01.103Z,97516.06
2019-02-12T10:51:49.080Z,97520.73
2019-02-12T10:54:36.971Z,97516.27
2019-02-12T10:57:24.985Z,97509.00
2019-02-12T11:00:13.675Z,97517.96
2019-02-12T11:03:01.689Z,97512.09
2019-02-12T11:05:49.807Z,97520.06
2019-02-12T11:08:37.998Z,97531.05
2019-02-12T11:11:26.031Z,97529.38
2019-02-12T11:14:14.487Z,97531.37
2019-02-12T11:17:01.966Z,97532.00
2019-02-12T11:19:50.256Z,97536.81
2019-02-12T11:22:38.340Z,97531.13
2019-02-12T11:25:26.376Z,97533.63
2019-02-12T11:28:14.381Z,97524.19
2019-02-12T11:31:01.986Z,97518.64
2019-02-12T11:33:50.064Z,97518.64
2019-02-12T11:36:38.265Z,97505.95
2019-02-12T11:39:26.472Z,97501.07
2019-02-12T11:42:14.720Z,97504.31
2019-02-12T11:45:02.757Z,97501.36
2019-02-12T11:47:50.967Z,97499.18
2019-02-12T11:50:38.840Z,97496.20
2019-02-12T11:53:28.060Z,97496.97
2019-02-12T11:56:16.051Z,97498.30
2019-02-12T11:59:03.988Z,97487.23
2019-02-12T12:01:52.132Z,97492.97
2019-02-12T12:04:39.955Z,97495.86
2019-02-12T12:07:27.398Z,97489.70
2019-02-12T12:10:15.877Z,97482.13
2019-02-12T12:13:03.469Z,97479.97
2019-02-12T12:15:51.002Z,97487.66
2019-02-12T12:18:39.063Z,97482.98
2019-02-12T12:21:26.843Z,97484.47
2019-02-12T12:24:15.031Z,97480.23
2019-02-12T12:27:02.887Z,97479.85
2019-02-12T12:29:51.058Z,97475.52
2019-02-12T12:32:39.058Z,97470.24
2019-02-12T12:35:26.988Z,97474.34
2019-02-12T12:38:15.088Z,97473.52
2019-02-12T12:41:03.050Z,97476.50
2019-02-12T12:43:51.477Z,97467.59
2019-02-12T12:46:39.636Z,97473.25
2019-02-12T12:49:27.457Z,97463.52
2019-02-12T12:52:15.489Z,97473.25
2019-02-12T12:55:03.069Z,97473.81
2019-02-12T12:57:51.167Z,97472.70
2019-02-12T13:00:38.737Z,97477.03
2019-02-12T13:03:26.956Z,97475.14
2019-02-12T13:06:15.065Z,97482.98
2019-02-12T13:09:04.326Z,97490.43
2019-02-12T13:11:52.479Z,97495.75
2019-02-12T13:14:40.468Z,97487.91
2019-02-12T13:17:28.352Z,97485.41
2019-02-12T13:20:16.659Z,97487.03
2019-02-12T13:23:04.579Z,97484.73
2019-02-12T13:25:52.791Z,97481.96
2019-02-12T13:28:40.738Z,97482.27
2019-02-12T13:31:28.887Z,97494.73
2019-02-12T13:34:17.195Z,97493.63
2019-02-12T13:37:04.985Z,97494.27
2019-02-12T13:39:53.171Z,97490.84
2019-02-12T13:42:41.678Z,97479.33
2019-02-12T13:45:29.982Z,97487.42
2019-02-12T13:48:18.547Z,97489.60
2019-02-12T13:51:06.572Z,97488.01
2019-02-12T13:53:54.654Z,97488.01
2019-02-12T13:56:42.737Z,97486.34
2019-02-12T13:59:30.770Z,97481.36
2019-02-12T14:02:18.366Z,97488.42
2019-02-12T14:05:08.158Z,97492.45
2019-02-12T14:07:55.953Z,97490.88
2019-02-12T14:10:43.916Z,97494.37
2019-02-12T14:13:31.630Z,97495.48
2019-02-12T14:16:19.788Z,97493.58
2019-02-12T14:19:07.936Z,97483.86
2019-02-12T14:21:55.881Z,97486.31
2019-02-12T14:24:43.504Z,97490.12
2019-02-12T14:27:31.445Z,97483.95
2019-02-12T14:30:19.491Z,97483.58
2019-02-12T14:33:07.682Z,97489.57
2019-02-12T14:35:55.739Z,97483.13
2019-02-12T14:38:43.671Z,97485.45
2019-02-12T14:41:32.077Z,97494.79
2019-02-12T14:44:19.874Z,97483.11
2019-02-12T14:47:07.823Z,97484.97
2019-02-12T14:49:55.835Z,97482.59
2019-02-12T14:52:44.019Z,97486.46
2019-02-12T14:55:33.939Z,97481.95
2019-02-12T14:58:21.968Z,97477.59
2019-02-12T15:01:10.183Z,97481.39
2019-02-12T15:03:58.083Z,97483.77
2019-02-12T15:06:46.120Z,97481.03
2019-02-12T15:09:34.269Z,97488.79
2019-02-12T15:12:22.229Z,97481.34
2019-02-12T15:15:10.472Z,97480.65
2019-02-12T15:17:58.734Z,97482.37
2019-02-12T15:20:46.435Z,97467.91
2019-02-12T15:23:34.210Z,97479.16
2019-02-12T15:26:22.198Z,97471.20
2019-02-12T15:29:10.338Z,97467.95
2019-02-12T15:31:57.873Z,97469.63
2019-02-12T15:34:45.979Z,97468.17
2019-02-12T15:37:34.149Z,97469.05
2019-02-12T15:40:22.231Z,97469.38
2019-02-12T15:43:09.967Z,97469.73
2019-02-12T15:45:57.878Z,97464.29
2019-02-12T15:48:45.730Z,97466.46
2019-02-12T15:51:33.896Z,97460.73
2019-02-12T15:54:21.996Z,97466.91
2019-02-12T15:57:10.497Z,97467.00
2019-02-12T15:59:58.414Z,97468.63
2019-02-12T16:02:46.458Z,97465.96
2019-02-12T16:05:34.872Z,97468.36
2019-02-12T16:08:22.968Z,97472.34
2019-02-12T16:11:11.180Z,97475.56
2019-02-12T16:13:59.402Z,97471.59
2019-02-12T16:16:47.126Z,97473.86
2019-02-12T16:19:34.789Z,97464.49
2019-02-12T16:22:22.669Z,97468.42
2019-02-12T16:25:11.731Z,97466.43
2019-02-12T16:27:59.350Z,97469.18
2019-02-12T16:30:47.384Z,97469.18
2019-02-12T16:33:35.198Z,97468.09
2019-02-12T16:36:23.044Z,97468.89
2019-02-12T16:39:11.175Z,97473.20
2019-02-12T16:41:58.722Z,97472.98
2019-02-12T16:44:46.926Z,97475.66
2019-02-12T16:47:35.325Z,97477.27
2019-02-12T16:50:23.653Z,97473.40
2019-02-12T16:53:11.693Z,97473.95
2019-02-12T16:56:07.929Z,97471.30
2019-02-12T16:58:50.086Z,97470.48
2019-02-12T17:01:38.069Z,97478.59
2019-02-12T17:04:26.215Z,97474.88
2019-02-12T17:07:14.869Z,97481.31
2019-02-12T17:10:02.874Z,97468.32
2019-02-12T17:12:50.929Z,97473.17
2019-02-12T17:15:38.733Z,97483.23
2019-02-12T17:18:26.913Z,97476.50
2019-02-12T17:21:15.478Z,97489.77
2019-02-12T17:24:03.375Z,97488.45
2019-02-12T17:26:51.381Z,97496.44
2019-02-12T17:29:39.267Z,97496.91
2019-02-12T17:32:27.179Z,97496.34
2019-02-12T17:35:15.554Z,97500.63
2019-02-12T17:38:03.800Z,97503.41
2019-02-12T17:40:51.648Z,97508.02
2019-02-12T17:43:39.628Z,97502.69
2019-02-12T17:46:27.581Z,97513.41
2019-02-12T17:49:15.813Z,97518.70
2019-02-12T17:52:03.337Z,97519.64
2019-02-12T17:54:51.503Z,97520.04
2019-02-12T17:57:39.848Z,97528.73
2019-02-12T18:00:31.593Z,97538.91
2019-02-12T18:03:19.635Z,97537.56
2019-02-12T18:06:07.178Z,97541.58
2019-02-12T18:08:54.775Z,97537.73
2019-02-12T18:11:42.630Z,97540.01
2019-02-12T18:14:30.672Z,97539.89
2019-02-12T18:17:18.708Z,97549.19
2019-02-12T18:20:07.135Z,97544.49
2019-02-12T18:22:55.166Z,97546.37
2019-02-12T18:25:43.280Z,97547.00
2019-02-12T18:28:31.315Z,97550.98
2019-02-12T18:31:19.804Z,97555.16
2019-02-12T18:34:07.639Z,97560.43
2019-02-12T18:36:55.654Z,97559.50
2019-02-12T18:39:43.138Z,97559.20
2019-02-12T18:42:31.397Z,97556.26
2019-02-12T18:45:19.567Z,97554.72
2019-02-12T18:48:07.894Z,97553.38
2019-02-12T18:50:55.418Z,97555.78
2019-02-12T18:53:43.282Z,97555.37
2019-02-12T18:56:30.952Z,97557.77
2019-02-12T18:59:19.078Z,97553.97
2019-02-12T19:02:06.870Z,97560.36
2019-02-12T19:04:54.730Z,97564.28
2019-02-12T19:07:42.979Z,97564.09
2019-02-12T19:10:31.386Z,97563.34
2019-02-12T19:13:19.449Z,97563.92
2019-02-12T19:16:07.382Z,97565.62
2019-02-12T19:18:55.447Z,97563.69
2019-02-12T19:21:43.637Z,97558.20
2019-02-12T19:24:31.697Z,97567.47
2019-02-12T19:27:20.232Z,97559.97
2019-02-12T19:30:09.112Z,97564.68
2019-02-12T19:32:56.970Z,97561.41
2019-02-12T19:35:45.285Z,97564.73
2019-02-12T19:38:33.069Z,97567.11
2019-02-12T19:41:21.241Z,97572.23
2019-02-12T19:44:09.460Z,97571.58
2019-02-12T19:46:57.757Z,97576.98
2019-02-12T19:49:45.541Z,97585.98
2019-02-12T19:52:33.844Z,97584.95
2019-02-12T19:55:21.993Z,97590.06
2019-02-12T19:58:10.222Z,97590.86
2019-02-12T20:00:58.042Z,97605.56
2019-02-12T20:03:46.074Z,97596.06
2019-02-12T20:06:33.851Z,97605.09
2019-02-12T20:09:22.732Z,97598.24
2019-02-12T20:12:10.511Z,97599.33
2019-02-12T20:14:58.741Z,97598.53
2019-02-12T20:17:47.000Z,97605.42
2019-02-12T20:20:35.140Z,97600.96
2019-02-12T20:23:23.197Z,97597.10
2019-02-12T20:26:11.036Z,97608.84
2019-02-12T20:28:59.083Z,97612.55
2019-02-12T20:31:47.327Z,97613.77
2019-02-12T20:34:35.469Z,97618.17
2019-02-12T20:37:24.923Z,97618.47
2019-02-12T20:40:13.334Z,97605.67
2019-02-12T20:43:02.343Z,97606.37
2019-02-12T20:45:50.725Z,97614.94
2019-02-12T20:48:38.601Z,97614.08
2019-02-12T20:51:27.058Z,97597.89
2019-02-12T20:54:15.462Z,97593.08
2019-02-12T20:57:03.676Z,97591.88
2019-02-12T20:59:51.972Z,97601.97
2019-02-12T21:02:40.050Z,97597.30
2019-02-12T21:05:28.560Z,97599.67
2019-02-12T21:08:16.651Z,97601.52
2019-02-12T21:11:04.617Z,97596.27
2019-02-12T21:13:52.164Z,97595.13
2019-02-12T21:16:39.900Z,97584.31
2019-02-12T21:19:28.150Z,97587.14
2019-02-12T21:22:16.440Z,97585.50
2019-02-12T21:25:04.350Z,97592.16
2019-02-12T21:27:52.164Z,97594.03
2019-02-12T21:30:40.017Z,97594.27
2019-02-12T21:33:28.263Z,97595.31
2019-02-12T21:36:15.940Z,97601.75
2019-02-12T21:39:04.637Z,97594.00
2019-02-12T21:41:52.690Z,97601.05
2019-02-12T21:44:41.047Z,97599.70
2019-02-12T21:47:29.036Z,97598.13
2019-02-12T21:50:16.885Z,97589.07
2019-02-12T21:53:04.467Z,97591.89
2019-02-12T21:55:52.908Z,97587.16
2019-02-12T21:58:40.953Z,97593.11
2019-02-12T22:01:28.874Z,97597.66
2019-02-12T22:04:16.781Z,97603.16
2019-02-12T22:07:05.169Z,97606.89
2019-02-12T22:09:53.459Z,97603.06
2019-02-12T22:12:41.397Z,97617.97
2019-02-12T22:15:29.465Z,97609.56
2019-02-12T22:18:17.554Z,97604.22
2019-02-12T22:21:05.316Z,97595.75
2019-02-12T22:23:53.329Z,97590.81
2019-02-12T22:26:41.326Z,97582.14
2019-02-12T22:29:29.556Z,97596.84
2019-02-12T22:32:17.131Z,97600.30
2019-02-12T22:35:05.480Z,97602.05
2019-02-12T22:37:53.372Z,97598.19
2019-02-12T22:40:41.163Z,97603.69
2019-02-12T22:43:28.883Z,97597.09
2019-02-12T22:46:16.512Z,97591.69
2019-02-12T22:49:04.195Z,97590.25
2019-02-12T22:51:52.534Z,97593.61
2019-02-12T22:54:40.535Z,97589.28
2019-02-12T22:57:28.708Z,97574.16
2019-02-12T23:00:47.128Z,97583.80
2019-02-12T23:03:36.583Z,97591.68
2019-02-12T23:06:24.533Z,97603.23
2019-02-12T23:09:19.012Z,97606.88
2019-02-12T23:12:07.133Z,97615.45
2019-02-12T23:14:55.402Z,97612.15
2019-02-12T23:17:43.465Z,97613.45
2019-02-12T23:20:31.769Z,97609.61
2019-02-12T23:23:19.632Z,97612.70
2019-02-12T23:26:09.083Z,97612.27
2019-02-12T23:28:56.978Z,97614.31
2019-02-12T23:31:45.240Z,97612.77
2019-02-12T23:34:33.476Z,97614.66
2019-02-12T23:37:21.633Z,97611.06
2019-02-12T23:40:09.355Z,97612.99
2019-02-12T23:42:57.197Z,97615.45
2019-02-12T23:45:44.949Z,97615.37
2019-02-12T23:48:32.509Z,97609.91
2019-02-12T23:51:20.365Z,97610.28
2019-02-12T23:54:08.316Z,97612.41
2019-02-12T23:56:55.903Z,97610.64
2019-02-12T23:59:44.078Z,97612.62
